createdAt,value
2023-04-25T00:02:14.405Z,16.80
2023-04-25T00:04:42.115Z,21.70
2023-04-25T00:07:09.074Z,15.43
2023-04-25T00:09:35.897Z,13.90
2023-04-25T00:12:02.857Z,23.13
2023-04-25T00:14:30.624Z,26.05
2023-04-25T00:16:57.467Z,18.50
2023-04-25T00:19:24.239Z,16.58
2023-04-25T00:21:51.258Z,19.38
2023-04-25T00:24:18.150Z,23.30
2023-04-25T00:26:45.036Z,17.35
2023-04-25T00:29:11.940Z,19.75
2023-04-25T00:31:38.830Z,15.15
2023-04-25T00:34:06.813Z,20.20
2023-04-25T00:36:33.763Z,18.38
2023-04-25T00:39:00.728Z,23.30
2023-04-25T00:41:28.236Z,22.08
2023-04-25T00:43:55.678Z,18.08
2023-04-25T00:46:22.563Z,19.25
2023-04-25T00:48:49.423Z,27.02
2023-04-25T00:51:21.286Z,18.05
2023-04-25T00:53:51.002Z,19.80
2023-04-25T00:56:18.545Z,22.67
2023-04-25T00:58:45.755Z,13.65
2023-04-25T01:01:13.678Z,24.13
2023-04-25T01:03:42.243Z,24.25
2023-04-25T01:06:13.369Z,14.27
2023-04-25T01:08:40.748Z,21.95
2023-04-25T01:11:07.983Z,21.48
2023-04-25T01:13:35.768Z,21.05
2023-04-25T01:16:03.839Z,19.55
2023-04-25T01:18:30.873Z,14.10
2023-04-25T01:21:12.494Z,22.25
2023-04-25T01:23:41.290Z,21.40
2023-04-25T01:26:11.232Z,21.48
2023-04-25T01:28:40.617Z,19.98
2023-04-25T01:31:07.768Z,18.88
2023-04-25T01:33:34.695Z,19.52
2023-04-25T01:36:01.934Z,22.65
2023-04-25T01:38:32.378Z,21.35
2023-04-25T01:40:59.360Z,19.63
2023-04-25T01:43:27.467Z,24.30
2023-04-25T01:45:54.441Z,22.65
2023-04-25T01:48:21.383Z,27.25
2023-04-25T01:50:49.486Z,22.42
2023-04-25T01:53:16.584Z,18.92
2023-04-25T01:55:43.488Z,20.17
2023-04-25T01:58:10.977Z,21.70
2023-04-25T02:00:39.892Z,21.20
2023-04-25T02:03:07.466Z,22.70
2023-04-25T02:05:38.385Z,27.95
2023-04-25T02:08:08.913Z,21.13
2023-04-25T02:10:36.371Z,27.85
2023-04-25T02:13:03.831Z,21.10
2023-04-25T02:15:30.761Z,22.35
2023-04-25T02:17:58.928Z,23.52
2023-04-25T02:20:26.246Z,17.73
2023-04-25T02:22:53.104Z,21.83
2023-04-25T02:25:21.056Z,22.13
2023-04-25T02:27:49.251Z,27.80
2023-04-25T02:30:16.520Z,23.83
2023-04-25T02:32:43.573Z,21.80
2023-04-25T02:35:10.845Z,26.27
2023-04-25T02:37:40.221Z,31.70
2023-04-25T02:40:08.007Z,26.90
2023-04-25T02:42:35.321Z,26.45
2023-04-25T02:45:02.853Z,29.90
2023-04-25T02:47:30.582Z,26.83
2023-04-25T02:49:57.581Z,24.05
2023-04-25T02:52:24.462Z,25.40
2023-04-25T02:54:51.530Z,36.15
2023-04-25T02:57:18.354Z,35.78
2023-04-25T02:59:45.279Z,30.30
2023-04-25T03:02:12.214Z,46.88
2023-04-25T03:04:39.144Z,34.67
2023-04-25T03:07:06.142Z,28.70
2023-04-25T03:09:32.933Z,33.22
2023-04-25T03:11:59.805Z,31.17
2023-04-25T03:14:26.635Z,32.42
2023-04-25T03:16:53.592Z,39.72
2023-04-25T03:19:21.428Z,29.40
2023-04-25T03:21:48.314Z,36.38
2023-04-25T03:24:15.532Z,33.78
2023-04-25T03:26:42.339Z,26.80
2023-04-25T03:29:09.522Z,32.90
2023-04-25T03:31:36.339Z,27.40
2023-04-25T03:34:03.194Z,30.92
2023-04-25T03:36:30.101Z,23.80
2023-04-25T03:38:57.006Z,26.00
2023-04-25T03:41:23.879Z,28.00
2023-04-25T03:43:50.944Z,25.85
2023-04-25T03:46:17.974Z,29.10
2023-04-25T03:48:44.816Z,31.63
2023-04-25T03:51:11.625Z,29.70
2023-04-25T03:53:38.700Z,28.95
2023-04-25T03:56:05.992Z,31.60
2023-04-25T03:58:32.848Z,36.25
2023-04-25T04:00:59.651Z,28.13
2023-04-25T04:03:26.700Z,32.78
2023-04-25T04:05:54.336Z,33.60
2023-04-25T04:08:21.246Z,30.00
2023-04-25T04:10:48.046Z,35.50
2023-04-25T04:13:14.815Z,26.40
2023-04-25T04:15:41.702Z,34.13
2023-04-25T04:18:08.622Z,53.88
2023-04-25T04:20:35.488Z,38.35
2023-04-25T04:23:02.701Z,34.38
2023-04-25T04:25:29.608Z,33.33
2023-04-25T04:27:56.533Z,33.88
2023-04-25T04:30:30.433Z,26.27
2023-04-25T04:32:58.081Z,39.17
2023-04-25T04:35:25.839Z,33.85
2023-04-25T04:37:52.648Z,23.33
2023-04-25T04:40:19.836Z,30.65
2023-04-25T04:42:46.665Z,42.53
2023-04-25T04:45:14.020Z,33.22
2023-04-25T04:47:41.650Z,27.23
2023-04-25T04:50:10.349Z,31.70
2023-04-25T04:52:38.250Z,26.45
2023-04-25T04:55:06.809Z,29.15
2023-04-25T04:57:33.973Z,30.30
2023-04-25T05:00:01.623Z,29.17
2023-04-25T05:02:29.120Z,25.48
2023-04-25T05:04:57.828Z,36.30
2023-04-25T05:07:24.805Z,40.28
2023-04-25T05:09:51.628Z,33.85
2023-04-25T05:12:18.605Z,32.78
2023-04-25T05:14:45.567Z,31.40
2023-04-25T05:17:12.396Z,37.67
2023-04-25T05:19:40.799Z,26.42
2023-04-25T05:22:07.647Z,39.20
2023-04-25T05:24:34.495Z,30.17
2023-04-25T05:27:01.843Z,27.35
2023-04-25T05:29:28.716Z,30.70
2023-04-25T05:31:55.736Z,27.80
2023-04-25T05:34:22.644Z,34.13
2023-04-25T05:36:49.789Z,37.20
2023-04-25T05:39:18.442Z,32.85
2023-04-25T05:41:45.471Z,32.47
2023-04-25T05:44:12.310Z,35.25
2023-04-25T05:46:39.311Z,26.95
2023-04-25T05:49:06.165Z,37.00
2023-04-25T05:51:32.970Z,32.42
2023-04-25T05:53:59.797Z,32.92
2023-04-25T05:56:26.829Z,28.83
2023-04-25T05:58:53.842Z,32.60
2023-04-25T06:01:20.921Z,30.27
2023-04-25T06:03:48.506Z,34.20
2023-04-25T06:06:15.720Z,39.83
2023-04-25T06:08:42.626Z,39.47
2023-04-25T06:11:09.558Z,31.48
2023-04-25T06:13:36.392Z,20.60
2023-04-25T06:16:03.432Z,29.45
2023-04-25T06:18:30.484Z,20.77
2023-04-25T06:20:57.349Z,27.33
2023-04-25T06:23:24.260Z,43.30
2023-04-25T06:25:51.113Z,25.95
2023-04-25T06:28:17.974Z,19.02
2023-04-25T06:30:44.935Z,25.80
2023-04-25T06:33:11.784Z,21.92
2023-04-25T06:35:38.678Z,33.42
2023-04-25T06:38:05.660Z,21.92
2023-04-25T06:40:32.476Z,21.00
2023-04-25T06:42:59.308Z,21.13
2023-04-25T06:45:26.229Z,30.60
2023-04-25T06:47:53.089Z,28.83
2023-04-25T06:50:19.989Z,19.77
2023-04-25T06:52:47.140Z,22.85
2023-04-25T06:55:13.990Z,24.42
2023-04-25T06:57:40.797Z,26.73
2023-04-25T07:00:10.493Z,25.38
2023-04-25T07:02:37.429Z,22.50
2023-04-25T07:05:05.484Z,29.02
2023-04-25T07:07:32.278Z,21.90
2023-04-25T07:09:59.207Z,19.15
2023-04-25T07:12:26.180Z,15.13
2023-04-25T07:14:53.021Z,17.50
2023-04-25T07:17:19.835Z,29.58
2023-04-25T07:19:46.686Z,25.15
2023-04-25T07:22:13.478Z,19.55
2023-04-25T07:24:40.606Z,20.60
2023-04-25T07:27:07.421Z,21.02
2023-04-25T07:29:37.748Z,28.30
2023-04-25T07:32:05.098Z,28.52
2023-04-25T07:34:33.122Z,20.70
2023-04-25T07:37:00.519Z,26.42
2023-04-25T07:39:27.918Z,22.45
2023-04-25T07:41:55.633Z,17.30
2023-04-25T07:44:22.648Z,18.38
2023-04-25T07:46:49.462Z,26.15
2023-04-25T07:49:16.381Z,22.52
2023-04-25T07:51:44.536Z,18.40
2023-04-25T07:54:15.155Z,18.40
2023-04-25T07:56:52.085Z,15.60
2023-04-25T07:59:20.337Z,16.85
2023-04-25T08:01:47.356Z,16.75
2023-04-25T08:04:14.335Z,20.55
2023-04-25T08:06:44.327Z,24.23
2023-04-25T08:09:11.494Z,28.88
2023-04-25T08:11:38.566Z,16.38
2023-04-25T08:14:06.088Z,15.63
2023-04-25T08:16:33.098Z,14.55
2023-04-25T08:19:01.137Z,16.40
2023-04-25T08:21:30.694Z,29.83
2023-04-25T08:23:59.618Z,14.40
2023-04-25T08:26:26.497Z,17.33
2023-04-25T08:28:53.626Z,13.05
2023-04-25T08:31:20.587Z,17.45
2023-04-25T08:33:47.609Z,17.67
2023-04-25T08:36:17.285Z,13.80
2023-04-25T08:38:48.634Z,16.60
2023-04-25T08:41:17.360Z,13.88
2023-04-25T08:43:47.345Z,12.35
2023-04-25T08:46:16.491Z,12.13
2023-04-25T08:48:45.747Z,12.38
2023-04-25T08:51:23.224Z,12.45
2023-04-25T08:53:57.973Z,13.65
2023-04-25T08:56:30.639Z,15.50
2023-04-25T08:58:58.094Z,17.40
2023-04-25T09:01:25.293Z,17.58
2023-04-25T09:03:52.371Z,11.38
2023-04-25T09:06:20.232Z,14.15
2023-04-25T09:08:47.062Z,13.68
2023-04-25T09:11:15.916Z,10.07
2023-04-25T09:13:42.773Z,9.25
2023-04-25T09:16:09.669Z,9.90
2023-04-25T09:18:36.609Z,15.80
2023-04-25T09:21:13.616Z,15.25
2023-04-25T09:23:47.150Z,7.68
2023-04-25T09:26:19.056Z,11.88
2023-04-25T09:28:46.973Z,13.48
2023-04-25T09:31:22.652Z,10.65
2023-04-25T09:33:49.612Z,14.55
2023-04-25T09:36:18.239Z,12.48
2023-04-25T09:38:46.772Z,12.95
2023-04-25T09:41:13.830Z,8.73
2023-04-25T09:43:40.922Z,10.82
2023-04-25T09:46:15.160Z,10.38
2023-04-25T09:48:48.793Z,13.15
2023-04-25T09:51:15.668Z,8.13
2023-04-25T09:53:47.699Z,10.05
2023-04-25T09:56:14.830Z,9.05
2023-04-25T09:58:42.208Z,13.15
2023-04-25T10:01:11.066Z,13.90
2023-04-25T10:03:43.087Z,19.33
2023-04-25T10:06:20.768Z,6.72
2023-04-25T10:08:54.670Z,12.35
2023-04-25T10:11:24.127Z,12.60
2023-04-25T10:13:51.805Z,6.10
2023-04-25T10:16:19.870Z,6.93
2023-04-25T10:18:46.731Z,8.20
2023-04-25T10:21:15.303Z,11.02
2023-04-25T10:23:43.340Z,8.30
2023-04-25T10:26:13.787Z,14.50
2023-04-25T10:29:00.859Z,16.13
2023-04-25T10:31:28.509Z,9.40
2023-04-25T10:33:55.722Z,11.68
2023-04-25T10:36:24.354Z,16.95
2023-04-25T10:38:52.463Z,9.88
2023-04-25T10:41:20.816Z,10.05
2023-04-25T10:43:49.479Z,8.73
2023-04-25T10:46:28.284Z,6.28
2023-04-25T10:48:57.234Z,5.68
2023-04-25T10:51:25.579Z,8.35
2023-04-25T10:54:06.916Z,7.25
2023-04-25T10:56:39.029Z,5.22
2023-04-25T10:59:09.275Z,5.38
2023-04-25T11:01:39.017Z,11.77
2023-04-25T11:04:06.302Z,10.45
2023-04-25T11:07:05.554Z,6.78
2023-04-25T11:09:39.335Z,9.80
2023-04-25T11:12:08.290Z,8.30
2023-04-25T11:14:35.435Z,12.00
2023-04-25T11:17:03.618Z,5.13
2023-04-25T11:19:31.324Z,10.68
2023-04-25T11:22:00.757Z,12.85
2023-04-25T11:24:32.933Z,10.07
2023-04-25T11:27:00.931Z,7.47
2023-04-25T11:29:28.866Z,10.40
2023-04-25T11:31:59.690Z,14.02
2023-04-25T11:34:27.177Z,14.02
2023-04-25T11:36:54.804Z,7.65
2023-04-25T11:39:22.426Z,8.18
2023-04-25T11:41:49.372Z,6.50
2023-04-25T11:44:20.624Z,7.90
2023-04-25T11:46:47.838Z,7.05
2023-04-25T11:49:15.551Z,8.18
2023-04-25T11:51:46.032Z,10.23
2023-04-25T11:54:13.779Z,9.63
2023-04-25T11:56:47.080Z,6.78
2023-04-25T11:59:14.461Z,9.95
2023-04-25T12:01:48.370Z,10.70
2023-04-25T12:04:17.552Z,6.13
2023-04-25T12:06:53.141Z,6.68
2023-04-25T12:09:31.489Z,7.13
2023-04-25T12:11:59.881Z,10.05
2023-04-25T12:14:29.221Z,5.38
2023-04-25T12:16:58.780Z,6.55
2023-04-25T12:19:27.058Z,5.85
2023-04-25T12:21:58.768Z,6.53
2023-04-25T12:24:28.687Z,7.30
2023-04-25T12:27:05.148Z,2.83
2023-04-25T12:29:41.818Z,6.45
2023-04-25T12:32:16.308Z,9.68
2023-04-25T12:34:43.224Z,10.02
2023-04-25T12:37:10.564Z,12.77
2023-04-25T12:39:37.464Z,5.43
2023-04-25T12:42:05.712Z,5.68
2023-04-25T12:44:35.255Z,7.32
2023-04-25T12:47:02.254Z,8.02
2023-04-25T12:49:29.179Z,5.05
2023-04-25T12:51:56.092Z,4.00
2023-04-25T12:54:22.900Z,4.47
2023-04-25T12:56:51.269Z,2.10
2023-04-25T12:59:18.690Z,2.33
2023-04-25T13:01:46.567Z,3.88
2023-04-25T13:04:13.810Z,7.53
2023-04-25T13:06:40.651Z,4.18
2023-04-25T13:09:07.974Z,5.30
2023-04-25T13:11:34.870Z,5.55
2023-04-25T13:14:02.047Z,4.13
2023-04-25T13:16:28.974Z,8.07
2023-04-25T13:18:57.252Z,2.97
2023-04-25T13:21:24.504Z,5.85
2023-04-25T13:23:52.084Z,6.30
2023-04-25T13:26:19.197Z,8.38
2023-04-25T13:28:46.189Z,7.28
2023-04-25T13:31:12.980Z,4.75
2023-04-25T13:33:39.816Z,7.15
2023-04-25T13:36:06.964Z,4.93
2023-04-25T13:38:33.879Z,6.15
2023-04-25T13:41:01.944Z,2.35
2023-04-25T13:43:28.930Z,8.38
2023-04-25T13:45:55.820Z,6.35
2023-04-25T13:48:23.687Z,6.28
2023-04-25T13:50:50.660Z,7.15
2023-04-25T13:53:17.512Z,5.30
2023-04-25T13:55:44.429Z,7.82
2023-04-25T13:58:11.710Z,6.65
2023-04-25T14:00:40.249Z,4.85
2023-04-25T14:03:11.061Z,6.00
2023-04-25T14:05:39.251Z,6.57
2023-04-25T14:08:08.117Z,8.20
2023-04-25T14:10:35.744Z,11.63
2023-04-25T14:13:04.467Z,5.32
2023-04-25T14:15:33.239Z,11.20
2023-04-25T14:18:01.021Z,5.82
2023-04-25T14:20:28.341Z,9.18
2023-04-25T14:22:56.996Z,10.23
2023-04-25T14:25:24.416Z,12.98
2023-04-25T14:27:51.424Z,13.25
2023-04-25T14:30:19.777Z,11.30
2023-04-25T14:32:47.034Z,27.02
2023-04-25T14:35:14.184Z,8.13
2023-04-25T14:37:41.215Z,6.90
2023-04-25T14:40:11.779Z,8.75
2023-04-25T14:42:38.919Z,2.95
2023-04-25T14:45:08.343Z,3.05
2023-04-25T14:47:37.082Z,4.63
2023-04-25T14:50:05.624Z,5.80
2023-04-25T14:52:32.509Z,6.38
2023-04-25T14:55:01.458Z,3.58
2023-04-25T14:57:28.386Z,3.42
2023-04-25T14:59:55.399Z,3.80
2023-04-25T15:02:22.689Z,8.68
2023-04-25T15:04:49.774Z,6.75
2023-04-25T15:07:18.476Z,8.38
2023-04-25T15:09:45.571Z,7.25
2023-04-25T15:12:13.093Z,3.28
2023-04-25T15:14:39.922Z,4.13
2023-04-25T15:17:07.201Z,4.72
2023-04-25T15:19:34.050Z,6.30
2023-04-25T15:22:02.431Z,9.05
2023-04-25T15:24:30.311Z,7.30
2023-04-25T15:26:57.587Z,10.40
2023-04-25T15:29:24.526Z,7.22
2023-04-25T15:31:51.541Z,7.97
2023-04-25T15:34:18.415Z,7.03
2023-04-25T15:36:45.258Z,10.35
2023-04-25T15:39:12.168Z,11.00
2023-04-25T15:41:39.017Z,5.55
2023-04-25T15:44:05.994Z,5.30
2023-04-25T15:46:32.974Z,5.40
2023-04-25T15:48:59.961Z,6.63
2023-04-25T15:51:26.967Z,4.75
2023-04-25T15:53:54.379Z,6.57
2023-04-25T15:56:21.485Z,4.88
2023-04-25T15:58:48.700Z,4.50
2023-04-25T16:01:15.795Z,14.43
2023-04-25T16:03:42.950Z,8.60
2023-04-25T16:06:10.089Z,4.65
2023-04-25T16:08:36.896Z,5.35
2023-04-25T16:11:03.750Z,5.53
2023-04-25T16:13:30.586Z,6.65
2023-04-25T16:15:57.923Z,5.78
2023-04-25T16:18:24.927Z,11.23
2023-04-25T16:20:52.074Z,5.85
2023-04-25T16:23:19.470Z,9.13
2023-04-25T16:25:46.340Z,12.45
2023-04-25T16:28:13.282Z,4.90
2023-04-25T16:30:40.154Z,9.77
2023-04-25T16:33:07.031Z,3.53
2023-04-25T16:35:34.071Z,7.90
2023-04-25T16:38:01.201Z,8.15
2023-04-25T16:40:28.293Z,6.15
2023-04-25T16:42:55.161Z,10.20
2023-04-25T16:45:22.432Z,9.15
2023-04-25T16:47:49.276Z,13.25
2023-04-25T16:50:16.461Z,6.97
2023-04-25T16:52:44.616Z,3.30
2023-04-25T16:55:11.672Z,5.85
2023-04-25T16:57:38.509Z,4.93
2023-04-25T17:00:09.690Z,4.95
2023-04-25T17:02:36.867Z,7.10
2023-04-25T17:05:04.051Z,6.30
2023-04-25T17:07:31.262Z,6.53
2023-04-25T17:09:58.077Z,8.07
2023-04-25T17:12:24.917Z,5.70
2023-04-25T17:14:51.768Z,4.93
2023-04-25T17:17:18.971Z,4.60
2023-04-25T17:19:46.596Z,7.07
2023-04-25T17:22:13.550Z,3.85
2023-04-25T17:24:40.809Z,8.95
2023-04-25T17:27:08.449Z,7.65
2023-04-25T17:29:35.686Z,6.13
2023-04-25T17:32:03.209Z,5.72
2023-04-25T17:34:31.914Z,12.95
2023-04-25T17:36:58.830Z,6.35
2023-04-25T17:39:25.726Z,11.82
2023-04-25T17:41:52.753Z,11.32
2023-04-25T17:44:19.580Z,15.75
2023-04-25T17:46:47.078Z,7.38
2023-04-25T17:49:13.949Z,12.00
2023-04-25T17:51:40.853Z,8.55
2023-04-25T17:54:08.398Z,6.72
2023-04-25T17:56:39.167Z,4.90
2023-04-25T17:59:09.113Z,4.57
2023-04-25T18:01:36.049Z,23.10
2023-04-25T18:04:04.290Z,6.78
2023-04-25T18:06:32.958Z,6.63
2023-04-25T18:08:59.875Z,9.77
2023-04-25T18:11:26.727Z,5.80
2023-04-25T18:13:53.889Z,6.22
2023-04-25T18:16:20.965Z,8.38
2023-04-25T18:18:53.366Z,9.75
2023-04-25T18:21:20.795Z,9.57
2023-04-25T18:23:47.795Z,11.15
2023-04-25T18:26:15.973Z,10.27
2023-04-25T18:28:42.968Z,8.50
2023-04-25T18:31:09.871Z,14.98
2023-04-25T18:37:24.237Z,13.75
2023-04-25T18:39:51.406Z,8.82
2023-04-25T18:42:20.110Z,8.90
2023-04-25T18:44:47.246Z,6.18
2023-04-25T18:47:14.241Z,13.80
2023-04-25T18:49:41.180Z,5.95
2023-04-25T18:52:12.823Z,13.60
2023-04-25T18:54:39.759Z,6.87
2023-04-25T18:57:06.726Z,12.15
2023-04-25T18:59:33.986Z,8.95
2023-04-25T19:02:02.064Z,11.90
2023-04-25T19:04:29.755Z,11.13
2023-04-25T19:06:56.876Z,8.55
2023-04-25T19:09:24.905Z,10.93
2023-04-25T19:11:51.811Z,8.25
2023-04-25T19:14:18.760Z,9.57
2023-04-25T19:16:45.899Z,11.60
2023-04-25T19:19:12.874Z,10.07
2023-04-25T19:21:39.801Z,6.95
2023-04-25T19:24:07.225Z,12.63
2023-04-25T19:26:34.597Z,4.45
2023-04-25T19:29:14.496Z,7.20
2023-04-25T19:31:43.107Z,7.30
2023-04-25T19:34:10.076Z,11.68
2023-04-25T19:36:38.755Z,8.45
2023-04-25T19:39:07.382Z,13.35
2023-04-25T19:41:36.499Z,17.52
2023-04-25T19:44:06.584Z,10.65
2023-04-25T19:46:37.600Z,16.92
2023-04-25T19:49:08.957Z,11.18
2023-04-25T19:51:37.082Z,7.35
2023-04-25T19:54:04.410Z,11.35
2023-04-25T19:56:31.662Z,8.02
2023-04-25T19:58:58.675Z,8.77
2023-04-25T20:01:26.282Z,10.85
2023-04-25T20:03:53.568Z,11.45
2023-04-25T20:06:20.659Z,13.40
2023-04-25T20:08:47.653Z,11.80
2023-04-25T20:11:15.027Z,10.48
2023-04-25T20:13:42.126Z,6.63
2023-04-25T20:16:09.539Z,8.90
2023-04-25T20:18:36.671Z,15.23
2023-04-25T20:21:03.894Z,19.58
2023-04-25T20:23:30.940Z,10.15
2023-04-25T20:25:58.067Z,15.48
2023-04-25T20:28:25.444Z,8.50
2023-04-25T20:30:52.481Z,9.80
2023-04-25T20:33:19.383Z,9.52
2023-04-25T20:35:46.722Z,14.80
2023-04-25T20:38:13.983Z,10.05
2023-04-25T20:40:41.284Z,8.32
2023-04-25T20:43:11.275Z,14.02
2023-04-25T20:45:38.751Z,8.13
2023-04-25T20:48:05.922Z,12.55
2023-04-25T20:50:33.868Z,10.27
2023-04-25T20:53:00.761Z,16.27
2023-04-25T20:55:27.717Z,13.00
2023-04-25T20:57:54.613Z,11.65
2023-04-25T21:00:27.431Z,13.20
2023-04-25T21:02:54.701Z,5.88
2023-04-25T21:05:22.429Z,6.85
2023-04-25T21:07:50.515Z,11.80
2023-04-25T21:10:17.940Z,12.48
2023-04-25T21:12:49.420Z,9.63
2023-04-25T21:15:18.154Z,9.77
2023-04-25T21:17:47.537Z,13.70
2023-04-25T21:20:20.384Z,7.13
2023-04-25T21:22:53.903Z,10.02
2023-04-25T21:25:30.117Z,8.35
2023-04-25T21:27:58.129Z,8.98
2023-04-25T21:30:25.911Z,10.55
2023-04-25T21:32:53.419Z,11.82
2023-04-25T21:35:22.138Z,12.20
2023-04-25T21:37:49.396Z,10.65
2023-04-25T21:40:16.634Z,11.00
2023-04-25T21:42:46.731Z,11.80
2023-04-25T21:45:13.622Z,11.27
2023-04-25T21:47:40.524Z,12.43
2023-04-25T21:50:08.168Z,11.65
2023-04-25T21:52:37.242Z,6.97
2023-04-25T21:55:04.326Z,15.05
2023-04-25T21:57:31.191Z,7.18
2023-04-25T21:59:59.026Z,15.18
2023-04-25T22:02:27.614Z,12.88
2023-04-25T22:04:54.742Z,13.55
2023-04-25T22:07:21.623Z,13.40
2023-04-25T22:09:54.917Z,8.23
2023-04-25T22:12:23.531Z,13.60
2023-04-25T22:14:51.062Z,7.75
2023-04-25T22:17:18.814Z,20.05
2023-04-25T22:19:46.679Z,25.75
2023-04-25T22:22:14.602Z,5.43
2023-04-25T22:24:42.320Z,15.65
2023-04-25T22:27:11.042Z,20.10
2023-04-25T22:29:37.894Z,7.88
2023-04-25T22:32:04.920Z,16.23
2023-04-25T22:34:31.738Z,5.72
2023-04-25T22:36:58.786Z,22.65
2023-04-25T22:39:25.691Z,9.88
2023-04-25T22:41:53.092Z,7.97
2023-04-25T22:44:19.909Z,13.07
2023-04-25T22:46:47.471Z,5.30
2023-04-25T22:49:14.649Z,15.30
2023-04-25T22:51:42.341Z,11.25
2023-04-25T22:54:09.794Z,15.38
2023-04-25T22:56:37.841Z,11.32
2023-04-25T22:59:04.711Z,9.48
2023-04-25T23:01:31.789Z,15.27
2023-04-25T23:03:58.924Z,9.35
2023-04-25T23:06:26.478Z,17.23
2023-04-25T23:08:53.814Z,14.18
2023-04-25T23:11:21.762Z,5.43
2023-04-25T23:13:48.611Z,10.55
2023-04-25T23:16:15.515Z,10.18
2023-04-25T23:18:42.382Z,9.88
2023-04-25T23:21:09.410Z,8.00
2023-04-25T23:23:36.737Z,8.30
2023-04-25T23:26:10.971Z,9.55
2023-04-25T23:28:41.429Z,7.90
2023-04-25T23:31:10.573Z,9.10
2023-04-25T23:33:37.572Z,16.50
2023-04-25T23:36:04.743Z,12.48
2023-04-25T23:38:32.631Z,9.55
2023-04-25T23:40:59.437Z,15.32
2023-04-25T23:43:26.366Z,17.20
2023-04-25T23:45:54.318Z,11.40
2023-04-25T23:48:21.306Z,15.50
2023-04-25T23:50:48.100Z,20.25
2023-04-25T23:53:15.297Z,8.10
2023-04-25T23:55:42.344Z,15.73
2023-04-25T23:58:09.214Z,10.68
